sensor_id;sensor_type;location;lat;lon;timestamp;temperature;humidity
76613;DHT22;65507;48.454;-2.058;2022-12-29T00:01:48;12.10;82.90
76613;DHT22;65507;48.454;-2.058;2022-12-29T00:04:14;12.10;82.80
76613;DHT22;65507;48.454;-2.058;2022-12-29T00:06:41;12.10;82.90
76613;DHT22;65507;48.454;-2.058;2022-12-29T00:09:08;12.00;82.90
76613;DHT22;65507;48.454;-2.058;2022-12-29T00:11:34;12.00;82.90
76613;DHT22;65507;48.454;-2.058;2022-12-29T00:13:59;12.00;82.80
76613;DHT22;65507;48.454;-2.058;2022-12-29T00:16:44;12.00;82.80
76613;DHT22;65507;48.454;-2.058;2022-12-29T00:19:11;12.00;82.80
76613;DHT22;65507;48.454;-2.058;2022-12-29T00:21:56;12.00;82.70
76613;DHT22;65507;48.454;-2.058;2022-12-29T00:24:41;11.30;82.30
76613;DHT22;65507;48.454;-2.058;2022-12-29T00:27:27;12.00;82.60
76613;DHT22;65507;48.454;-2.058;2022-12-29T00:30:14;12.00;82.60
76613;DHT22;65507;48.454;-2.058;2022-12-29T00:32:58;12.00;82.60
76613;DHT22;65507;48.454;-2.058;2022-12-29T00:35:51;12.00;82.50
76613;DHT22;65507;48.454;-2.058;2022-12-29T00:38:18;11.90;82.40
76613;DHT22;65507;48.454;-2.058;2022-12-29T00:41:02;11.90;82.40
76613;DHT22;65507;48.454;-2.058;2022-12-29T00:43:46;11.90;82.30
76613;DHT22;65507;48.454;-2.058;2022-12-29T00:46:33;11.90;82.30
76613;DHT22;65507;48.454;-2.058;2022-12-29T00:49:00;11.90;82.20
76613;DHT22;65507;48.454;-2.058;2022-12-29T00:51:45;11.80;82.20
76613;DHT22;65507;48.454;-2.058;2022-12-29T00:54:11;11.80;82.10
76613;DHT22;65507;48.454;-2.058;2022-12-29T00:56:37;11.90;82.20
76613;DHT22;65507;48.454;-2.058;2022-12-29T00:59:05;11.80;82.20
76613;DHT22;65507;48.454;-2.058;2022-12-29T01:01:31;11.80;82.20
76613;DHT22;65507;48.454;-2.058;2022-12-29T01:03:57;11.80;82.20
76613;DHT22;65507;48.454;-2.058;2022-12-29T01:06:26;11.80;82.20
76613;DHT22;65507;48.454;-2.058;2022-12-29T01:08:52;11.20;81.90
76613;DHT22;65507;48.454;-2.058;2022-12-29T01:11:36;11.70;82.20
76613;DHT22;65507;48.454;-2.058;2022-12-29T01:14:02;11.70;82.30
76613;DHT22;65507;48.454;-2.058;2022-12-29T01:16:28;11.70;82.40
76613;DHT22;65507;48.454;-2.058;2022-12-29T01:18:54;11.70;82.40
76613;DHT22;65507;48.454;-2.058;2022-12-29T01:21:20;11.60;82.40
76613;DHT22;65507;48.454;-2.058;2022-12-29T01:23:45;11.60;82.40
76613;DHT22;65507;48.454;-2.058;2022-12-29T01:26:13;11.60;82.50
76613;DHT22;65507;48.454;-2.058;2022-12-29T01:28:39;11.50;82.50
76613;DHT22;65507;48.454;-2.058;2022-12-29T01:31:09;11.50;82.50
76613;DHT22;65507;48.454;-2.058;2022-12-29T01:33:35;11.50;82.70
76613;DHT22;65507;48.454;-2.058;2022-12-29T01:36:09;11.40;82.60
76613;DHT22;65507;48.454;-2.058;2022-12-29T01:38:36;11.40;82.70
76613;DHT22;65507;48.454;-2.058;2022-12-29T01:41:03;11.40;82.80
76613;DHT22;65507;48.454;-2.058;2022-12-29T01:43:49;11.30;82.70
76613;DHT22;65507;48.454;-2.058;2022-12-29T01:46:29;11.30;82.80
76613;DHT22;65507;48.454;-2.058;2022-12-29T01:51:42;11.20;82.80
76613;DHT22;65507;48.454;-2.058;2022-12-29T01:54:22;11.20;82.80
76613;DHT22;65507;48.454;-2.058;2022-12-29T01:56:51;11.20;82.90
76613;DHT22;65507;48.454;-2.058;2022-12-29T01:59:22;11.20;82.80
76613;DHT22;65507;48.454;-2.058;2022-12-29T02:01:50;11.20;82.80
76613;DHT22;65507;48.454;-2.058;2022-12-29T02:04:16;11.20;82.80
76613;DHT22;65507;48.454;-2.058;2022-12-29T02:06:53;11.10;82.70
76613;DHT22;65507;48.454;-2.058;2022-12-29T02:09:19;11.10;82.60
76613;DHT22;65507;48.454;-2.058;2022-12-29T02:11:45;11.10;82.70
76613;DHT22;65507;48.454;-2.058;2022-12-29T02:14:13;11.10;82.60
76613;DHT22;65507;48.454;-2.058;2022-12-29T02:16:46;11.10;82.50
76613;DHT22;65507;48.454;-2.058;2022-12-29T02:22:22;11.10;82.40
76613;DHT22;65507;48.454;-2.058;2022-12-29T02:25:06;11.00;82.40
76613;DHT22;65507;48.454;-2.058;2022-12-29T02:28:08;11.10;82.40
76613;DHT22;65507;48.454;-2.058;2022-12-29T02:34:10;11.00;82.40
76613;DHT22;65507;48.454;-2.058;2022-12-29T02:49:58;10.90;82.50
76613;DHT22;65507;48.454;-2.058;2022-12-29T02:52:36;10.90;83.50
76613;DHT22;65507;48.454;-2.058;2022-12-29T02:55:04;10.90;82.50
76613;DHT22;65507;48.454;-2.058;2022-12-29T02:57:35;10.90;82.70
76613;DHT22;65507;48.454;-2.058;2022-12-29T03:00:04;10.90;82.50
76613;DHT22;65507;48.454;-2.058;2022-12-29T03:11:05;11.10;82.30
76613;DHT22;65507;48.454;-2.058;2022-12-29T03:14:04;11.10;82.30
76613;DHT22;65507;48.454;-2.058;2022-12-29T03:16:58;11.10;82.30
76613;DHT22;65507;48.454;-2.058;2022-12-29T03:19:46;11.00;82.30
76613;DHT22;65507;48.454;-2.058;2022-12-29T03:22:21;11.00;82.30
76613;DHT22;65507;48.454;-2.058;2022-12-29T03:25:26;10.90;82.30
76613;DHT22;65507;48.454;-2.058;2022-12-29T03:27:57;10.90;82.40
76613;DHT22;65507;48.454;-2.058;2022-12-29T03:30:24;10.90;82.40
76613;DHT22;65507;48.454;-2.058;2022-12-29T03:32:55;10.90;82.40
76613;DHT22;65507;48.454;-2.058;2022-12-29T03:35:25;10.80;82.40
76613;DHT22;65507;48.454;-2.058;2022-12-29T03:40:19;10.80;82.40
76613;DHT22;65507;48.454;-2.058;2022-12-29T03:42:47;10.80;82.40
76613;DHT22;65507;48.454;-2.058;2022-12-29T03:45:13;10.80;82.40
76613;DHT22;65507;48.454;-2.058;2022-12-29T03:47:39;10.80;82.40
76613;DHT22;65507;48.454;-2.058;2022-12-29T03:50:05;10.80;82.40
76613;DHT22;65507;48.454;-2.058;2022-12-29T03:52:31;10.70;82.40
76613;DHT22;65507;48.454;-2.058;2022-12-29T03:54:57;10.70;82.40
76613;DHT22;65507;48.454;-2.058;2022-12-29T03:57:23;10.70;82.40
76613;DHT22;65507;48.454;-2.058;2022-12-29T03:59:48;10.60;82.40
76613;DHT22;65507;48.454;-2.058;2022-12-29T04:02:15;10.60;82.40
76613;DHT22;65507;48.454;-2.058;2022-12-29T04:04:40;10.60;82.40
76613;DHT22;65507;48.454;-2.058;2022-12-29T04:07:06;10.60;82.50
76613;DHT22;65507;48.454;-2.058;2022-12-29T04:09:32;10.60;82.50
76613;DHT22;65507;48.454;-2.058;2022-12-29T04:11:57;10.60;82.50
76613;DHT22;65507;48.454;-2.058;2022-12-29T04:14:23;10.60;82.50
76613;DHT22;65507;48.454;-2.058;2022-12-29T04:16:49;10.50;82.50
76613;DHT22;65507;48.454;-2.058;2022-12-29T04:19:15;10.50;82.50
76613;DHT22;65507;48.454;-2.058;2022-12-29T04:21:40;10.50;82.50
76613;DHT22;65507;48.454;-2.058;2022-12-29T04:24:07;10.50;82.70
76613;DHT22;65507;48.454;-2.058;2022-12-29T04:26:33;10.50;82.60
76613;DHT22;65507;48.454;-2.058;2022-12-29T04:28:59;10.40;82.60
76613;DHT22;65507;48.454;-2.058;2022-12-29T04:31:25;11.20;83.10
76613;DHT22;65507;48.454;-2.058;2022-12-29T04:33:50;10.40;82.70
76613;DHT22;65507;48.454;-2.058;2022-12-29T04:36:16;10.30;82.60
76613;DHT22;65507;48.454;-2.058;2022-12-29T04:38:42;10.30;82.70
76613;DHT22;65507;48.454;-2.058;2022-12-29T04:41:08;10.30;82.80
76613;DHT22;65507;48.454;-2.058;2022-12-29T04:43:33;10.30;82.80
76613;DHT22;65507;48.454;-2.058;2022-12-29T04:45:59;10.30;82.70
76613;DHT22;65507;48.454;-2.058;2022-12-29T04:48:25;10.30;82.70
76613;DHT22;65507;48.454;-2.058;2022-12-29T04:50:50;10.30;82.80
76613;DHT22;65507;48.454;-2.058;2022-12-29T04:53:17;10.20;82.70
76613;DHT22;65507;48.454;-2.058;2022-12-29T04:55:43;10.20;82.70
76613;DHT22;65507;48.454;-2.058;2022-12-29T04:58:09;10.20;82.70
76613;DHT22;65507;48.454;-2.058;2022-12-29T05:00:34;10.20;82.70
76613;DHT22;65507;48.454;-2.058;2022-12-29T05:03:00;10.20;82.70
76613;DHT22;65507;48.454;-2.058;2022-12-29T05:05:26;10.20;82.70
76613;DHT22;65507;48.454;-2.058;2022-12-29T05:07:52;10.10;82.70
76613;DHT22;65507;48.454;-2.058;2022-12-29T05:10:17;10.10;82.70
76613;DHT22;65507;48.454;-2.058;2022-12-29T05:12:43;10.10;82.70
76613;DHT22;65507;48.454;-2.058;2022-12-29T05:15:10;10.10;82.80
76613;DHT22;65507;48.454;-2.058;2022-12-29T05:17:36;10.10;82.80
76613;DHT22;65507;48.454;-2.058;2022-12-29T05:20:04;10.00;82.80
76613;DHT22;65507;48.454;-2.058;2022-12-29T05:22:30;10.00;82.90
76613;DHT22;65507;48.454;-2.058;2022-12-29T05:24:56;10.00;82.90
76613;DHT22;65507;48.454;-2.058;2022-12-29T05:27:22;10.00;82.80
76613;DHT22;65507;48.454;-2.058;2022-12-29T05:29:47;10.00;82.80
76613;DHT22;65507;48.454;-2.058;2022-12-29T05:32:13;10.00;82.80
76613;DHT22;65507;48.454;-2.058;2022-12-29T05:34:39;10.00;82.80
76613;DHT22;65507;48.454;-2.058;2022-12-29T05:37:05;9.90;82.80
76613;DHT22;65507;48.454;-2.058;2022-12-29T05:39:30;10.00;82.80
76613;DHT22;65507;48.454;-2.058;2022-12-29T05:41:56;9.90;82.80
76613;DHT22;65507;48.454;-2.058;2022-12-29T05:44:22;9.90;82.90
76613;DHT22;65507;48.454;-2.058;2022-12-29T05:46:47;9.90;82.80
76613;DHT22;65507;48.454;-2.058;2022-12-29T05:49:13;9.90;82.90
76613;DHT22;65507;48.454;-2.058;2022-12-29T05:51:39;9.80;82.80
76613;DHT22;65507;48.454;-2.058;2022-12-29T05:54:05;9.80;82.90
76613;DHT22;65507;48.454;-2.058;2022-12-29T05:56:30;9.80;83.00
76613;DHT22;65507;48.454;-2.058;2022-12-29T05:58:56;9.80;82.90
76613;DHT22;65507;48.454;-2.058;2022-12-29T06:01:22;9.80;82.90
76613;DHT22;65507;48.454;-2.058;2022-12-29T06:03:48;9.80;82.90
76613;DHT22;65507;48.454;-2.058;2022-12-29T06:06:13;9.80;83.00
76613;DHT22;65507;48.454;-2.058;2022-12-29T06:08:39;9.70;83.00
76613;DHT22;65507;48.454;-2.058;2022-12-29T06:11:05;9.70;83.00
76613;DHT22;65507;48.454;-2.058;2022-12-29T06:13:30;9.70;83.10
76613;DHT22;65507;48.454;-2.058;2022-12-29T06:15:56;9.70;83.10
76613;DHT22;65507;48.454;-2.058;2022-12-29T06:18:22;9.70;83.10
76613;DHT22;65507;48.454;-2.058;2022-12-29T06:20:48;9.70;83.00
76613;DHT22;65507;48.454;-2.058;2022-12-29T06:23:14;9.70;83.10
76613;DHT22;65507;48.454;-2.058;2022-12-29T06:25:40;9.70;83.00
76613;DHT22;65507;48.454;-2.058;2022-12-29T06:28:06;9.70;83.00
76613;DHT22;65507;48.454;-2.058;2022-12-29T06:30:32;9.70;83.00
76613;DHT22;65507;48.454;-2.058;2022-12-29T06:32:58;9.70;83.00
76613;DHT22;65507;48.454;-2.058;2022-12-29T06:35:25;9.70;83.00
76613;DHT22;65507;48.454;-2.058;2022-12-29T06:37:51;9.70;83.00
76613;DHT22;65507;48.454;-2.058;2022-12-29T06:40:17;9.70;83.10
76613;DHT22;65507;48.454;-2.058;2022-12-29T06:42:42;9.60;83.00
76613;DHT22;65507;48.454;-2.058;2022-12-29T06:45:08;9.70;83.00
76613;DHT22;65507;48.454;-2.058;2022-12-29T06:47:34;9.70;83.10
76613;DHT22;65507;48.454;-2.058;2022-12-29T06:50:01;9.70;83.10
76613;DHT22;65507;48.454;-2.058;2022-12-29T06:52:27;9.70;83.10
76613;DHT22;65507;48.454;-2.058;2022-12-29T06:54:54;9.70;83.20
76613;DHT22;65507;48.454;-2.058;2022-12-29T06:57:20;9.60;83.10
76613;DHT22;65507;48.454;-2.058;2022-12-29T06:59:46;9.60;83.10
76613;DHT22;65507;48.454;-2.058;2022-12-29T07:02:13;9.60;83.10
76613;DHT22;65507;48.454;-2.058;2022-12-29T07:04:43;9.60;83.10
76613;DHT22;65507;48.454;-2.058;2022-12-29T07:07:09;9.60;83.10
76613;DHT22;65507;48.454;-2.058;2022-12-29T07:09:35;9.60;83.10
76613;DHT22;65507;48.454;-2.058;2022-12-29T07:12:00;9.60;83.40
76613;DHT22;65507;48.454;-2.058;2022-12-29T07:14:26;9.60;83.20
76613;DHT22;65507;48.454;-2.058;2022-12-29T07:16:52;9.60;83.20
76613;DHT22;65507;48.454;-2.058;2022-12-29T07:19:18;9.60;83.20
76613;DHT22;65507;48.454;-2.058;2022-12-29T07:21:44;9.60;83.20
76613;DHT22;65507;48.454;-2.058;2022-12-29T07:24:10;9.60;83.30
76613;DHT22;65507;48.454;-2.058;2022-12-29T07:26:35;9.60;83.30
76613;DHT22;65507;48.454;-2.058;2022-12-29T07:29:02;9.60;83.30
76613;DHT22;65507;48.454;-2.058;2022-12-29T07:31:28;9.60;83.30
76613;DHT22;65507;48.454;-2.058;2022-12-29T07:33:54;9.50;83.30
76613;DHT22;65507;48.454;-2.058;2022-12-29T07:36:20;9.50;83.30
76613;DHT22;65507;48.454;-2.058;2022-12-29T07:38:46;9.50;83.30
76613;DHT22;65507;48.454;-2.058;2022-12-29T07:41:11;9.50;83.20
76613;DHT22;65507;48.454;-2.058;2022-12-29T07:43:37;9.50;83.30
76613;DHT22;65507;48.454;-2.058;2022-12-29T07:46:03;9.50;83.30
76613;DHT22;65507;48.454;-2.058;2022-12-29T07:48:29;9.50;83.20
76613;DHT22;65507;48.454;-2.058;2022-12-29T07:50:55;9.50;83.30
76613;DHT22;65507;48.454;-2.058;2022-12-29T07:53:20;9.50;83.20
76613;DHT22;65507;48.454;-2.058;2022-12-29T07:55:46;9.50;83.20
76613;DHT22;65507;48.454;-2.058;2022-12-29T07:58:12;9.50;83.20
76613;DHT22;65507;48.454;-2.058;2022-12-29T08:00:38;9.50;83.20
76613;DHT22;65507;48.454;-2.058;2022-12-29T08:03:07;9.40;83.00
76613;DHT22;65507;48.454;-2.058;2022-12-29T08:05:33;9.40;83.10
76613;DHT22;65507;48.454;-2.058;2022-12-29T08:07:59;9.40;83.10
76613;DHT22;65507;48.454;-2.058;2022-12-29T08:10:25;9.40;83.00
76613;DHT22;65507;48.454;-2.058;2022-12-29T08:12:51;9.40;83.00
76613;DHT22;65507;48.454;-2.058;2022-12-29T08:15:17;8.60;82.50
76613;DHT22;65507;48.454;-2.058;2022-12-29T08:17:42;9.40;83.00
76613;DHT22;65507;48.454;-2.058;2022-12-29T08:20:09;9.40;82.90
76613;DHT22;65507;48.454;-2.058;2022-12-29T08:22:35;9.40;82.90
76613;DHT22;65507;48.454;-2.058;2022-12-29T08:25:01;9.40;82.80
76613;DHT22;65507;48.454;-2.058;2022-12-29T08:27:26;9.40;82.80
76613;DHT22;65507;48.454;-2.058;2022-12-29T08:29:52;9.40;82.80
76613;DHT22;65507;48.454;-2.058;2022-12-29T08:32:18;9.40;82.70
76613;DHT22;65507;48.454;-2.058;2022-12-29T08:34:44;9.40;82.70
76613;DHT22;65507;48.454;-2.058;2022-12-29T08:37:10;9.40;82.70
76613;DHT22;65507;48.454;-2.058;2022-12-29T08:39:35;9.40;82.60
76613;DHT22;65507;48.454;-2.058;2022-12-29T08:42:01;9.40;82.70
76613;DHT22;65507;48.454;-2.058;2022-12-29T08:44:27;9.40;82.60
76613;DHT22;65507;48.454;-2.058;2022-12-29T08:46:53;9.50;82.60
76613;DHT22;65507;48.454;-2.058;2022-12-29T08:49:18;9.50;82.50
76613;DHT22;65507;48.454;-2.058;2022-12-29T08:51:44;9.50;82.50
76613;DHT22;65507;48.454;-2.058;2022-12-29T08:54:10;9.50;82.50
76613;DHT22;65507;48.454;-2.058;2022-12-29T08:56:36;9.50;82.40
76613;DHT22;65507;48.454;-2.058;2022-12-29T08:59:01;9.50;82.40
76613;DHT22;65507;48.454;-2.058;2022-12-29T09:01:27;9.60;82.30
76613;DHT22;65507;48.454;-2.058;2022-12-29T09:03:54;9.60;82.30
76613;DHT22;65507;48.454;-2.058;2022-12-29T09:06:20;9.60;82.20
76613;DHT22;65507;48.454;-2.058;2022-12-29T09:08:46;9.60;82.10
76613;DHT22;65507;48.454;-2.058;2022-12-29T09:11:20;9.70;82.20
76613;DHT22;65507;48.454;-2.058;2022-12-29T09:13:46;9.70;82.10
76613;DHT22;65507;48.454;-2.058;2022-12-29T09:16:15;9.80;82.00
76613;DHT22;65507;48.454;-2.058;2022-12-29T09:18:41;9.80;81.90
76613;DHT22;65507;48.454;-2.058;2022-12-29T09:21:09;9.90;81.90
76613;DHT22;65507;48.454;-2.058;2022-12-29T09:23:34;9.90;81.80
76613;DHT22;65507;48.454;-2.058;2022-12-29T09:26:02;9.90;81.70
76613;DHT22;65507;48.454;-2.058;2022-12-29T09:28:28;10.00;81.70
76613;DHT22;65507;48.454;-2.058;2022-12-29T09:30:55;10.00;81.60
76613;DHT22;65507;48.454;-2.058;2022-12-29T09:33:21;10.10;81.50
76613;DHT22;65507;48.454;-2.058;2022-12-29T09:35:55;10.10;81.50
76613;DHT22;65507;48.454;-2.058;2022-12-29T09:38:21;10.10;81.50
76613;DHT22;65507;48.454;-2.058;2022-12-29T09:40:53;10.10;81.50
76613;DHT22;65507;48.454;-2.058;2022-12-29T09:46:25;10.10;81.40
76613;DHT22;65507;48.454;-2.058;2022-12-29T09:51:48;10.20;81.20
76613;DHT22;65507;48.454;-2.058;2022-12-29T09:56:51;10.40;81.10
76613;DHT22;65507;48.454;-2.058;2022-12-29T09:59:20;10.50;80.90
76613;DHT22;65507;48.454;-2.058;2022-12-29T10:01:58;10.50;80.80
76613;DHT22;65507;48.454;-2.058;2022-12-29T10:04:28;10.60;80.70
76613;DHT22;65507;48.454;-2.058;2022-12-29T10:09:33;10.70;80.50
76613;DHT22;65507;48.454;-2.058;2022-12-29T10:18:47;10.80;80.20
76613;DHT22;65507;48.454;-2.058;2022-12-29T10:20:56;10.90;80.10
76613;DHT22;65507;48.454;-2.058;2022-12-29T10:25:56;11.00;79.90
76613;DHT22;65507;48.454;-2.058;2022-12-29T10:31:18;11.10;79.70
76613;DHT22;65507;48.454;-2.058;2022-12-29T10:33:50;11.10;79.60
76613;DHT22;65507;48.454;-2.058;2022-12-29T10:36:27;11.20;79.60
76613;DHT22;65507;48.454;-2.058;2022-12-29T10:41:39;11.30;79.40
76613;DHT22;65507;48.454;-2.058;2022-12-29T10:44:09;11.30;79.10
76613;DHT22;65507;48.454;-2.058;2022-12-29T10:46:37;11.40;79.20
76613;DHT22;65507;48.454;-2.058;2022-12-29T10:49:05;11.40;79.10
76613;DHT22;65507;48.454;-2.058;2022-12-29T10:51:39;11.50;79.00
76613;DHT22;65507;48.454;-2.058;2022-12-29T10:57:44;11.60;79.70
76613;DHT22;65507;48.454;-2.058;2022-12-29T11:00:14;11.60;78.60
76613;DHT22;65507;48.454;-2.058;2022-12-29T11:05:52;11.70;78.70
76613;DHT22;65507;48.454;-2.058;2022-12-29T11:08:24;11.70;78.70
76613;DHT22;65507;48.454;-2.058;2022-12-29T11:11:01;11.80;78.70
76613;DHT22;65507;48.454;-2.058;2022-12-29T11:13:31;11.80;78.50
76613;DHT22;65507;48.454;-2.058;2022-12-29T11:15:56;11.80;78.40
76613;DHT22;65507;48.454;-2.058;2022-12-29T11:18:38;11.90;78.40
76613;DHT22;65507;48.454;-2.058;2022-12-29T11:21:34;11.90;78.30
76613;DHT22;65507;48.454;-2.058;2022-12-29T11:24:03;11.90;78.00
76613;DHT22;65507;48.454;-2.058;2022-12-29T11:26:29;12.00;78.20
76613;DHT22;65507;48.454;-2.058;2022-12-29T11:31:45;12.00;77.80
76613;DHT22;65507;48.454;-2.058;2022-12-29T11:34:37;12.10;77.80
76613;DHT22;65507;48.454;-2.058;2022-12-29T11:37:12;12.10;77.50
76613;DHT22;65507;48.454;-2.058;2022-12-29T11:42:20;12.20;77.50
76613;DHT22;65507;48.454;-2.058;2022-12-29T11:44:49;12.20;77.40
76613;DHT22;65507;48.454;-2.058;2022-12-29T11:47:45;12.20;77.20
76613;DHT22;65507;48.454;-2.058;2022-12-29T11:50:17;12.20;77.00
76613;DHT22;65507;48.454;-2.058;2022-12-29T11:52:44;12.20;77.20
76613;DHT22;65507;48.454;-2.058;2022-12-29T11:55:21;12.30;77.20
76613;DHT22;65507;48.454;-2.058;2022-12-29T11:57:50;12.30;77.10
76613;DHT22;65507;48.454;-2.058;2022-12-29T12:00:23;12.30;77.10
76613;DHT22;65507;48.454;-2.058;2022-12-29T12:05:44;12.30;76.80
76613;DHT22;65507;48.454;-2.058;2022-12-29T12:08:17;12.40;76.80
76613;DHT22;65507;48.454;-2.058;2022-12-29T12:11:29;12.30;76.80
76613;DHT22;65507;48.454;-2.058;2022-12-29T12:16:46;12.40;76.70
76613;DHT22;65507;48.454;-2.058;2022-12-29T12:19:20;12.40;76.70
76613;DHT22;65507;48.454;-2.058;2022-12-29T12:21:56;12.50;76.70
76613;DHT22;65507;48.454;-2.058;2022-12-29T12:24:46;12.50;76.50
76613;DHT22;65507;48.454;-2.058;2022-12-29T12:27:21;12.50;76.30
76613;DHT22;65507;48.454;-2.058;2022-12-29T12:30:03;12.50;76.50
76613;DHT22;65507;48.454;-2.058;2022-12-29T12:40:58;12.60;76.00
76613;DHT22;65507;48.454;-2.058;2022-12-29T12:46:28;12.70;75.90
76613;DHT22;65507;48.454;-2.058;2022-12-29T12:55:15;12.80;75.60
76613;DHT22;65507;48.454;-2.058;2022-12-29T12:58:04;12.80;75.70
76613;DHT22;65507;48.454;-2.058;2022-12-29T13:04:05;12.80;75.60
76613;DHT22;65507;48.454;-2.058;2022-12-29T13:20:36;13.10;74.80
76613;DHT22;65507;48.454;-2.058;2022-12-29T13:25:41;13.30;74.70
76613;DHT22;65507;48.454;-2.058;2022-12-29T13:31:09;13.40;74.40
76613;DHT22;65507;48.454;-2.058;2022-12-29T13:34:02;13.50;74.10
76613;DHT22;65507;48.454;-2.058;2022-12-29T13:36:42;13.40;74.10
76613;DHT22;65507;48.454;-2.058;2022-12-29T13:39:22;13.40;74.20
76613;DHT22;65507;48.454;-2.058;2022-12-29T13:41:54;13.40;74.40
76613;DHT22;65507;48.454;-2.058;2022-12-29T13:44:30;13.40;74.40
76613;DHT22;65507;48.454;-2.058;2022-12-29T13:47:00;13.40;74.30
76613;DHT22;65507;48.454;-2.058;2022-12-29T13:49:27;13.40;74.20
76613;DHT22;65507;48.454;-2.058;2022-12-29T13:51:55;13.40;74.30
76613;DHT22;65507;48.454;-2.058;2022-12-29T13:57:31;13.40;74.30
76613;DHT22;65507;48.454;-2.058;2022-12-29T14:00:56;13.40;74.00
76613;DHT22;65507;48.454;-2.058;2022-12-29T14:06:11;13.40;74.20
76613;DHT22;65507;48.454;-2.058;2022-12-29T14:08:37;13.30;74.10
76613;DHT22;65507;48.454;-2.058;2022-12-29T14:11:11;13.40;74.00
76613;DHT22;65507;48.454;-2.058;2022-12-29T14:13:41;13.40;73.70
76613;DHT22;65507;48.454;-2.058;2022-12-29T14:18:55;13.40;73.40
76613;DHT22;65507;48.454;-2.058;2022-12-29T14:21:25;13.40;73.20
76613;DHT22;65507;48.454;-2.058;2022-12-29T14:26:45;13.20;73.10
76613;DHT22;65507;48.454;-2.058;2022-12-29T14:34:55;12.90;73.40
76613;DHT22;65507;48.454;-2.058;2022-12-29T14:37:31;12.90;73.70
76613;DHT22;65507;48.454;-2.058;2022-12-29T14:40:33;12.90;73.60
76613;DHT22;65507;48.454;-2.058;2022-12-29T14:43:00;12.80;73.50
76613;DHT22;65507;48.454;-2.058;2022-12-29T14:45:30;12.90;73.80
76613;DHT22;65507;48.454;-2.058;2022-12-29T14:47:58;12.90;73.70
76613;DHT22;65507;48.454;-2.058;2022-12-29T14:50:43;12.90;73.80
76613;DHT22;65507;48.454;-2.058;2022-12-29T14:53:46;12.90;73.60
76613;DHT22;65507;48.454;-2.058;2022-12-29T14:56:15;12.90;73.70
76613;DHT22;65507;48.454;-2.058;2022-12-29T14:58:57;12.80;73.80
76613;DHT22;65507;48.454;-2.058;2022-12-29T15:03:56;12.70;73.90
76613;DHT22;65507;48.454;-2.058;2022-12-29T15:06:25;12.60;74.00
76613;DHT22;65507;48.454;-2.058;2022-12-29T15:11:58;12.40;74.40
76613;DHT22;65507;48.454;-2.058;2022-12-29T15:16:54;12.30;74.80
76613;DHT22;65507;48.454;-2.058;2022-12-29T15:19:24;12.30;75.00
76613;DHT22;65507;48.454;-2.058;2022-12-29T15:21:50;12.20;75.10
76613;DHT22;65507;48.454;-2.058;2022-12-29T15:24:16;12.20;75.30
76613;DHT22;65507;48.454;-2.058;2022-12-29T15:26:49;12.10;75.30
76613;DHT22;65507;48.454;-2.058;2022-12-29T15:29:42;12.00;75.40
76613;DHT22;65507;48.454;-2.058;2022-12-29T15:32:28;11.90;75.50
76613;DHT22;65507;48.454;-2.058;2022-12-29T15:34:57;11.80;75.60
76613;DHT22;65507;48.454;-2.058;2022-12-29T15:37:43;11.70;75.80
76613;DHT22;65507;48.454;-2.058;2022-12-29T15:40:28;11.70;75.90
76613;DHT22;65507;48.454;-2.058;2022-12-29T15:43:19;11.60;75.90
76613;DHT22;65507;48.454;-2.058;2022-12-29T15:45:49;11.60;76.00
76613;DHT22;65507;48.454;-2.058;2022-12-29T15:48:19;11.50;76.20
76613;DHT22;65507;48.454;-2.058;2022-12-29T15:50:45;11.50;76.10
76613;DHT22;65507;48.454;-2.058;2022-12-29T15:53:18;11.40;76.20
76613;DHT22;65507;48.454;-2.058;2022-12-29T15:55:44;11.40;76.30
76613;DHT22;65507;48.454;-2.058;2022-12-29T15:58:27;11.30;76.20
76613;DHT22;65507;48.454;-2.058;2022-12-29T16:00:58;11.30;76.30
76613;DHT22;65507;48.454;-2.058;2022-12-29T16:03:31;11.20;76.30
76613;DHT22;65507;48.454;-2.058;2022-12-29T16:06:10;11.20;76.40
76613;DHT22;65507;48.454;-2.058;2022-12-29T16:08:40;11.10;76.40
76613;DHT22;65507;48.454;-2.058;2022-12-29T16:11:27;11.00;76.50
76613;DHT22;65507;48.454;-2.058;2022-12-29T16:13:57;10.90;76.60
76613;DHT22;65507;48.454;-2.058;2022-12-29T16:16:43;10.90;76.70
76613;DHT22;65507;48.454;-2.058;2022-12-29T16:19:26;10.90;76.70
76613;DHT22;65507;48.454;-2.058;2022-12-29T16:21:54;10.80;76.70
76613;DHT22;65507;48.454;-2.058;2022-12-29T16:24:23;10.80;76.80
76613;DHT22;65507;48.454;-2.058;2022-12-29T16:29:22;10.70;77.70
76613;DHT22;65507;48.454;-2.058;2022-12-29T16:31:49;10.70;76.90
76613;DHT22;65507;48.454;-2.058;2022-12-29T16:34:25;10.70;77.00
76613;DHT22;65507;48.454;-2.058;2022-12-29T16:36:58;10.70;77.00
76613;DHT22;65507;48.454;-2.058;2022-12-29T16:39:33;10.60;77.10
76613;DHT22;65507;48.454;-2.058;2022-12-29T16:42:00;10.60;77.10
76613;DHT22;65507;48.454;-2.058;2022-12-29T16:44:30;10.50;77.20
76613;DHT22;65507;48.454;-2.058;2022-12-29T16:46:57;10.50;77.20
76613;DHT22;65507;48.454;-2.058;2022-12-29T16:49:24;10.50;77.30
76613;DHT22;65507;48.454;-2.058;2022-12-29T16:51:52;10.50;77.40
76613;DHT22;65507;48.454;-2.058;2022-12-29T16:54:28;10.50;77.40
76613;DHT22;65507;48.454;-2.058;2022-12-29T16:56:55;10.40;77.40
76613;DHT22;65507;48.454;-2.058;2022-12-29T16:59:34;10.40;77.40
76613;DHT22;65507;48.454;-2.058;2022-12-29T17:02:06;10.40;77.50
76613;DHT22;65507;48.454;-2.058;2022-12-29T17:04:32;10.40;77.50
76613;DHT22;65507;48.454;-2.058;2022-12-29T17:06:58;10.40;78.50
76613;DHT22;65507;48.454;-2.058;2022-12-29T17:09:28;10.40;77.50
76613;DHT22;65507;48.454;-2.058;2022-12-29T17:11:58;10.40;77.50
76613;DHT22;65507;48.454;-2.058;2022-12-29T17:17:17;10.40;77.60
76613;DHT22;65507;48.454;-2.058;2022-12-29T17:20:48;10.40;77.60
76613;DHT22;65507;48.454;-2.058;2022-12-29T17:22:56;10.30;77.60
76613;DHT22;65507;48.454;-2.058;2022-12-29T17:25:27;10.30;77.80
76613;DHT22;65507;48.454;-2.058;2022-12-29T17:27:57;10.30;77.80
76613;DHT22;65507;48.454;-2.058;2022-12-29T17:30:25;10.20;77.80
76613;DHT22;65507;48.454;-2.058;2022-12-29T17:33:00;10.20;77.90
76613;DHT22;65507;48.454;-2.058;2022-12-29T17:35:27;10.20;78.00
76613;DHT22;65507;48.454;-2.058;2022-12-29T17:37:53;10.10;78.00
76613;DHT22;65507;48.454;-2.058;2022-12-29T17:40:21;10.10;78.00
76613;DHT22;65507;48.454;-2.058;2022-12-29T17:42:53;10.10;78.10
76613;DHT22;65507;48.454;-2.058;2022-12-29T17:45:27;10.10;78.20
76613;DHT22;65507;48.454;-2.058;2022-12-29T17:47:54;10.00;78.30
76613;DHT22;65507;48.454;-2.058;2022-12-29T17:50:24;10.00;78.40
76613;DHT22;65507;48.454;-2.058;2022-12-29T17:52:56;10.00;78.40
76613;DHT22;65507;48.454;-2.058;2022-12-29T17:55:23;9.90;78.40
76613;DHT22;65507;48.454;-2.058;2022-12-29T17:57:50;9.90;78.40
76613;DHT22;65507;48.454;-2.058;2022-12-29T18:00:25;9.80;78.50
76613;DHT22;65507;48.454;-2.058;2022-12-29T18:02:55;9.80;78.60
76613;DHT22;65507;48.454;-2.058;2022-12-29T18:05:26;9.80;78.70
76613;DHT22;65507;48.454;-2.058;2022-12-29T18:07:54;9.80;78.80
76613;DHT22;65507;48.454;-2.058;2022-12-29T18:10:23;9.70;78.80